Time;durP1;ratioP1;P1;durP2;ratioP2;P2;SDS_P1;SDS_P2;PMS_P1;PMS_P2;Temp;Humidity;BMP_temperature;BMP_pressure;BME280_temperature;BME280_humidity;BME280_pressure;Samples;Min_cycle;Max_cycle;Signal;HPM_P1;HPM_P2
2023/10/30 00:01:11;;;;;;;;;;;;;;;17.96;57.98;98151.09;10330550;28;944;-77
2023/10/30 00:06:07;;;;;;;;;;;;;;;17.95;57.83;98130.97;10331694;28;973;-77
2023/10/30 00:11:03;;;;;;;;;;;;;;;17.92;57.81;98160.16;10330809;28;794;-77
2023/10/30 00:15:59;;;;;;;;;;;;;;;17.92;57.87;98168.06;10329844;28;1894;-77
2023/10/30 00:20:55;;;;;;;;;;;;;;;17.90;58.11;98164.72;10330532;28;821;-77
2023/10/30 00:25:53;;;;;;;;;;;;;;;17.88;58.17;98172.72;10330175;28;862;-78
2023/10/30 00:30:48;;;;;;;;;;;;;;;17.87;57.85;98180.75;10330256;28;1084;-77
2023/10/30 00:35:44;;;;;;;;;;;;;;;17.86;58.40;98168.50;10329674;28;1909;-78
2023/10/30 00:40:40;;;;;;;;;;;;;;;17.85;58.23;98172.94;10329537;28;924;-78
2023/10/30 00:45:36;;;;;;;;;;;;;;;17.83;57.90;98185.38;10328658;28;999;-78
2023/10/30 00:50:32;;;;;;;;;;;;;;;17.84;58.19;98191.47;10328824;28;980;-77
2023/10/30 00:55:28;;;;;;;;;;;;;;;17.82;58.26;98194.25;10328972;28;1898;-77
2023/10/30 01:00:24;;;;;;;;;;;;;;;17.79;58.28;98207.63;10328252;28;954;-77
2023/10/30 01:05:20;;;;;;;;;;;;;;;17.78;58.05;98210.31;10327119;28;851;-77
2023/10/30 01:10:16;;;;;;;;;;;;;;;17.77;58.49;98219.19;10327787;28;913;-77
2023/10/30 01:15:12;;;;;;;;;;;;;;;17.76;58.43;98215.69;10326857;28;1955;-78
2023/10/30 01:20:08;;;;;;;;;;;;;;;17.76;58.65;98210.41;10327437;28;865;-77
2023/10/30 01:25:04;;;;;;;;;;;;;;;17.74;58.43;98212.34;10327833;28;802;-77
2023/10/30 01:30:00;;;;;;;;;;;;;;;17.73;58.50;98215.91;10326209;28;1207;-77
2023/10/30 01:34:55;;;;;;;;;;;;;;;17.71;58.42;98218.66;10326834;28;1965;-77
2023/10/30 01:39:51;;;;;;;;;;;;;;;17.70;58.45;98206.41;10326696;28;787;-77
2023/10/30 01:44:47;;;;;;;;;;;;;;;17.70;58.56;98211.69;10326699;28;857;-77
2023/10/30 01:49:43;;;;;;;;;;;;;;;17.69;58.50;98211.78;10325729;28;997;-78
2023/10/30 01:54:39;;;;;;;;;;;;;;;17.66;58.35;98209.38;10326782;28;1898;-77
2023/10/30 01:59:35;;;;;;;;;;;;;;;17.65;58.43;98208.50;10326047;28;842;-77
2023/10/30 02:04:31;;;;;;;;;;;;;;;17.66;58.66;98226.03;10326154;28;869;-78
2023/10/30 02:09:26;;;;;;;;;;;;;;;17.64;58.57;98222.63;10326424;28;833;-77
2023/10/30 02:14:22;;;;;;;;;;;;;;;17.63;58.60;98235.91;10325528;28;1902;-78
2023/10/30 02:19:18;;;;;;;;;;;;;;;17.61;58.34;98225.47;10325384;28;818;-77
2023/10/30 02:24:14;;;;;;;;;;;;;;;17.61;58.54;98224.66;10326216;28;810;-77
2023/10/30 02:29:10;;;;;;;;;;;;;;;17.60;58.47;98221.13;10325663;28;1131;-78
2023/10/30 02:34:06;;;;;;;;;;;;;;;17.59;58.50;98222.09;10324901;28;1902;-77
2023/10/30 02:39:02;;;;;;;;;;;;;;;17.58;58.69;98220.41;10325118;28;858;-77
2023/10/30 02:43:58;;;;;;;;;;;;;;;17.57;58.60;98231.88;10325161;28;794;-77
2023/10/30 02:48:55;;;;;;;;;;;;;;;17.57;58.63;98234.53;10325591;28;811;-77
2023/10/30 02:53:51;;;;;;;;;;;;;;;17.55;58.48;98223.22;10325472;28;848;-78
2023/10/30 02:58:47;;;;;;;;;;;;;;;17.54;58.63;98224.19;10324709;28;1894;-78
2023/10/30 03:03:43;;;;;;;;;;;;;;;17.53;58.53;98231.25;10324725;28;787;-77
2023/10/30 03:08:38;;;;;;;;;;;;;;;17.52;58.56;98239.25;10324631;28;852;-77
2023/10/30 03:13:35;;;;;;;;;;;;;;;17.51;58.55;98229.66;10324888;28;921;-78
2023/10/30 03:18:31;;;;;;;;;;;;;;;17.51;58.51;98230.50;10325393;28;1964;-77
2023/10/30 03:23:27;;;;;;;;;;;;;;;17.50;58.63;98230.59;10324990;28;845;-78
2023/10/30 03:28:22;;;;;;;;;;;;;;;17.49;58.59;98231.56;10325337;28;893;-77
2023/10/30 03:33:20;;;;;;;;;;;;;;;17.49;58.43;98235.03;10331609;28;1312;-77
2023/10/30 03:38:16;;;;;;;;;;;;;;;17.49;58.57;98232.41;10332180;28;1987;-78
2023/10/30 03:43:14;;;;;;;;;;;;;;;17.48;58.59;98224.63;10331696;28;817;-77
2023/10/30 03:48:09;;;;;;;;;;;;;;;17.48;58.70;98216.72;10330564;28;805;-78
2023/10/30 03:53:06;;;;;;;;;;;;;;;17.47;58.74;98229.00;10330905;28;747;-77
2023/10/30 03:58:03;;;;;;;;;;;;;;;17.45;58.67;98225.66;10329987;28;1905;-77
2023/10/30 04:02:59;;;;;;;;;;;;;;;17.45;58.63;98235.34;10331111;28;830;-77
2023/10/30 04:07:55;;;;;;;;;;;;;;;17.45;58.53;98243.25;10329775;28;909;-77
2023/10/30 04:12:51;;;;;;;;;;;;;;;17.44;58.58;98246.81;10330048;28;826;-77
2023/10/30 04:17:46;;;;;;;;;;;;;;;17.43;58.62;98247.78;10330124;28;1967;-77
2023/10/30 04:22:42;;;;;;;;;;;;;;;17.43;58.51;98245.13;10329820;28;853;-77
2023/10/30 04:27:38;;;;;;;;;;;;;;;17.41;58.73;98247.03;10329098;28;1000;-77
2023/10/30 04:32:34;;;;;;;;;;;;;;;17.42;58.80;98243.44;10330321;28;1156;-78
2023/10/30 04:37:30;;;;;;;;;;;;;;;17.42;58.71;98248.69;10329185;28;1910;-77
2023/10/30 04:42:27;;;;;;;;;;;;;;;17.41;58.74;98253.13;10328999;28;894;-77
2023/10/30 04:47:23;;;;;;;;;;;;;;;17.40;58.70;98242.72;10328713;28;870;-77
2023/10/30 04:52:19;;;;;;;;;;;;;;;17.40;58.66;98240.91;10328638;28;969;-77
2023/10/30 04:57:15;;;;;;;;;;;;;;;17.40;58.63;98234.81;10328216;28;1910;-77
2023/10/30 05:02:10;;;;;;;;;;;;;;;17.44;58.49;98237.13;10327610;28;881;-78
2023/10/30 05:07:06;;;;;;;;;;;;;;;17.49;58.36;98235.03;10328010;28;794;-74
2023/10/30 05:12:02;;;;;;;;;;;;;;;17.56;58.33;98242.53;10328433;28;822;-74
2023/10/30 05:16:58;;;;;;;;;;;;;;;17.58;58.37;98238.00;10328153;28;1901;-74
2023/10/30 05:21:54;;;;;;;;;;;;;;;17.62;58.07;98235.06;10327902;28;758;-74
2023/10/30 05:26:52;;;;;;;;;;;;;;;17.64;58.11;98237.59;10327797;28;861;-73
2023/10/30 05:31:48;;;;;;;;;;;;;;;17.66;58.23;98239.19;10326643;28;1108;-74
2023/10/30 05:36:44;;;;;;;;;;;;;;;17.68;58.26;98250.47;10327576;28;1917;-74
2023/10/30 05:41:41;;;;;;;;;;;;;;;17.70;58.32;98248.56;10327231;28;1397;-74
2023/10/30 05:46:37;;;;;;;;;;;;;;;17.74;58.26;98257.97;10327235;28;1028;-74
2023/10/30 05:51:33;;;;;;;;;;;;;;;17.82;57.94;98259.28;10326428;28;794;-73
2023/10/30 05:56:28;;;;;;;;;;;;;;;17.85;58.15;98259.06;10326487;28;1903;-74
2023/10/30 06:01:24;;;;;;;;;;;;;;;17.89;57.96;98255.28;10326048;28;787;-73
2023/10/30 06:06:20;;;;;;;;;;;;;;;17.96;57.82;98254.75;10326070;28;1063;-74
2023/10/30 06:11:16;;;;;;;;;;;;;;;17.95;57.71;98252.25;10325860;28;796;-74
2023/10/30 06:16:12;;;;;;;;;;;;;;;18.02;57.93;98247.38;10326372;28;1965;-74
2023/10/30 06:21:08;;;;;;;;;;;;;;;18.05;57.67;98255.06;10326199;28;881;-74
2023/10/30 06:26:04;;;;;;;;;;;;;;;18.03;57.80;98257.00;10321942;28;1117;-73
2023/10/30 06:31:00;;;;;;;;;;;;;;;18.07;57.78;98258.47;10323376;28;1385;-73
2023/10/30 06:35:58;;;;;;;;;;;;;;;18.09;57.62;98262.69;10324978;28;1910;-72
2023/10/30 06:40:54;;;;;;;;;;;;;;;18.10;57.46;98247.69;10324999;28;897;-74
2023/10/30 06:45:50;;;;;;;;;;;;;;;18.09;57.56;98236.31;10325460;28;801;-75
2023/10/30 06:50:46;;;;;;;;;;;;;;;18.13;57.59;98242.22;10324417;28;763;-71
2023/10/30 06:55:42;;;;;;;;;;;;;;;18.13;57.58;98240.44;10324716;28;1984;-71
2023/10/30 07:00:38;;;;;;;;;;;;;;;18.12;57.78;98233.47;10324227;28;871;-71
2023/10/30 07:05:33;;;;;;;;;;;;;;;18.10;57.78;98245.94;10329638;28;929;-71
2023/10/30 07:10:29;;;;;;;;;;;;;;;18.06;57.71;98259.41;10331667;28;767;-71
2023/10/30 07:15:26;;;;;;;;;;;;;;;18.01;57.88;98267.63;10332371;28;1957;-69
2023/10/30 07:20:22;;;;;;;;;;;;;;;17.97;57.68;98274.03;10331625;28;822;-71
2023/10/30 07:25:18;;;;;;;;;;;;;;;17.96;57.80;98272.38;10331705;28;821;-71
2023/10/30 07:30:14;;;;;;;;;;;;;;;17.93;58.09;98281.31;10331606;28;1256;-70
2023/10/30 07:35:10;;;;;;;;;;;;;;;17.90;57.96;98283.34;10331278;28;1979;-70
2023/10/30 07:40:06;;;;;;;;;;;;;;;17.90;58.21;98299.16;10329355;28;1837;-74
2023/10/30 07:45:02;;;;;;;;;;;;;;;17.94;57.91;98292.72;10295199;28;876;-72
2023/10/30 07:50:00;;;;;;;;;;;;;;;17.95;58.07;98294.41;10290841;28;901;-73
2023/10/30 07:54:56;;;;;;;;;;;;;;;18.00;58.21;98294.09;10289800;28;1941;-73
2023/10/30 07:59:52;;;;;;;;;;;;;;;18.05;58.17;98292.84;10289569;28;1124;-76
2023/10/30 08:04:48;;;;;;;;;;;;;;;18.03;58.13;98292.09;10289542;28;761;-73
2023/10/30 08:09:43;;;;;;;;;;;;;;;18.05;58.14;98300.78;10288764;28;936;-73
2023/10/30 08:14:39;;;;;;;;;;;;;;;18.11;58.16;98297.72;10289325;28;1898;-74
2023/10/30 08:19:35;;;;;;;;;;;;;;;18.12;58.28;98291.47;10289717;28;920;-73
2023/10/30 08:24:31;;;;;;;;;;;;;;;18.13;58.26;98305.50;10289209;28;829;-74
2023/10/30 08:29:27;;;;;;;;;;;;;;;18.16;58.14;98308.78;10323749;28;1262;-73
2023/10/30 08:34:23;;;;;;;;;;;;;;;18.20;58.22;98303.31;10329672;28;1969;-73
2023/10/30 08:39:19;;;;;;;;;;;;;;;18.20;58.24;98305.94;10329938;28;944;-73
2023/10/30 08:44:15;;;;;;;;;;;;;;;18.25;58.36;98306.47;10301105;28;1011;-74
2023/10/30 08:49:10;;;;;;;;;;;;;;;18.30;58.18;98307.00;10286578;28;996;-72
2023/10/30 08:54:06;;;;;;;;;;;;;;;18.27;58.32;98300.16;10287066;28;810;-72
2023/10/30 08:59:06;;;;;;;;;;;;;;;18.28;58.03;98300.97;10287598;28;1973;-72
2023/10/30 09:04:01;;;;;;;;;;;;;;;18.31;57.87;98295.50;10287699;28;883;-72
2023/10/30 09:08:57;;;;;;;;;;;;;;;18.31;58.08;98300.78;10286750;28;909;-72
2023/10/30 09:13:53;;;;;;;;;;;;;;;18.30;57.99;98299.94;10287159;28;956;-72
2023/10/30 09:18:49;;;;;;;;;;;;;;;18.33;57.98;98304.16;10286222;28;1963;-72
2023/10/30 09:23:45;;;;;;;;;;;;;;;18.33;57.76;98291.81;10286564;28;802;-73
2023/10/30 09:28:41;;;;;;;;;;;;;;;18.35;57.83;98296.97;10285530;28;962;-72
2023/10/30 09:33:37;;;;;;;;;;;;;;;18.36;57.92;98303.94;10287289;28;1346;-74
2023/10/30 09:38:33;;;;;;;;;;;;;;;18.34;57.82;98290.88;10286535;28;1913;-74
2023/10/30 09:43:29;;;;;;;;;;;;;;;18.38;57.80;98291.50;10284359;28;939;-73
2023/10/30 09:48:25;;;;;;;;;;;;;;;18.40;57.60;98284.31;10286398;28;814;-73
2023/10/30 09:53:20;;;;;;;;;;;;;;;18.38;57.78;98283.56;10284680;28;969;-73
2023/10/30 09:58:17;;;;;;;;;;;;;;;18.38;57.57;98271.22;10286021;28;1969;-73
2023/10/30 10:03:13;;;;;;;;;;;;;;;18.42;57.59;98261.31;10285301;28;925;-73
2023/10/30 10:08:09;;;;;;;;;;;;;;;18.42;57.85;98255.19;10284637;28;999;-73
2023/10/30 10:13:04;;;;;;;;;;;;;;;18.38;57.81;98252.75;10284975;28;859;-73
2023/10/30 10:18:00;;;;;;;;;;;;;;;18.43;57.61;98241.06;10284104;28;1969;-74
2023/10/30 10:22:56;;;;;;;;;;;;;;;18.45;57.70;98241.81;10284587;28;1163;-75
2023/10/30 10:27:54;;;;;;;;;;;;;;;18.43;57.81;98241.91;10307402;28;995;-73
2023/10/30 10:32:50;;;;;;;;;;;;;;;18.42;57.81;98240.22;10325844;28;1113;-73
2023/10/30 10:37:46;;;;;;;;;;;;;;;18.42;57.65;98229.66;10292679;28;1913;-73
2023/10/30 10:42:42;;;;;;;;;;;;;;;18.46;57.45;98220.56;10297019;28;910;-73
2023/10/30 10:47:38;;;;;;;;;;;;;;;18.49;57.47;98217.72;10298061;28;822;-74
2023/10/30 10:52:34;;;;;;;;;;;;;;;18.53;57.52;98200.72;10297420;28;857;-74
2023/10/30 10:57:30;;;;;;;;;;;;;;;18.53;57.55;98198.09;10297978;28;1947;-74
2023/10/30 11:02:26;;;;;;;;;;;;;;;18.57;57.51;98191.63;10297334;28;766;-77
2023/10/30 11:07:22;;;;;;;;;;;;;;;18.56;57.65;98195.22;10296999;28;1198;-75
2023/10/30 11:12:17;;;;;;;;;;;;;;;18.58;57.53;98197.75;10297012;28;933;-75
2023/10/30 11:17:13;;;;;;;;;;;;;;;18.65;58.04;98187.59;10296444;28;1898;-75
2023/10/30 11:22:09;;;;;;;;;;;;;;;18.62;58.03;98189.50;10296219;28;897;-77
2023/10/30 11:27:05;;;;;;;;;;;;;;;18.63;57.75;98177.16;10296955;28;945;-75
2023/10/30 11:32:01;;;;;;;;;;;;;;;18.63;57.69;98171.91;10295932;28;1456;-75
2023/10/30 11:36:57;;;;;;;;;;;;;;;18.65;57.45;98166.50;10296667;28;1976;-75
2023/10/30 11:41:53;;;;;;;;;;;;;;;18.69;57.30;98150.31;10296477;28;812;-76
2023/10/30 11:46:49;;;;;;;;;;;;;;;18.68;57.15;98139.88;10296362;28;901;-76
2023/10/30 11:51:45;;;;;;;;;;;;;;;18.65;57.27;98135.66;10291406;28;881;-75
2023/10/30 11:56:41;;;;;;;;;;;;;;;18.61;57.55;98145.59;10289294;28;1960;-76
2023/10/30 12:01:37;;;;;;;;;;;;;;;18.59;57.44;98136.09;10289892;28;795;-75
2023/10/30 12:06:32;;;;;;;;;;;;;;;18.60;57.35;98129.88;10289574;28;783;-76
2023/10/30 12:11:28;;;;;;;;;;;;;;;18.59;57.50;98131.66;10289907;28;894;-77
2023/10/30 12:16:24;;;;;;;;;;;;;;;18.59;57.55;98120.28;10289574;28;1901;-76
2023/10/30 12:21:20;;;;;;;;;;;;;;;18.56;57.45;98109.94;10289239;28;914;-75
2023/10/30 12:26:16;;;;;;;;;;;;;;;18.52;57.41;98098.78;10297864;28;1192;-76
2023/10/30 12:31:12;;;;;;;;;;;;;;;18.55;57.52;98082.72;10329531;28;1349;-73
2023/10/30 12:36:08;;;;;;;;;;;;;;;18.59;57.25;98078.06;10329671;28;1973;-70
2023/10/30 12:41:06;;;;;;;;;;;;;;;18.59;57.28;98063.06;10328434;28;905;-80
2023/10/30 12:46:02;;;;;;;;;;;;;;;18.61;57.55;98066.44;10329393;28;854;-80
2023/10/30 12:50:58;;;;;;;;;;;;;;;18.56;57.46;98063.28;10328785;28;755;-83
2023/10/30 12:55:54;;;;;;;;;;;;;;;18.56;57.47;98060.66;10328835;28;1948;-76
2023/10/30 13:00:50;;;;;;;;;;;;;;;18.60;57.29;98056.84;10327849;28;811;-76
2023/10/30 13:05:45;;;;;;;;;;;;;;;18.61;57.56;98033.94;10328342;28;962;-75
2023/10/30 13:10:42;;;;;;;;;;;;;;;18.63;57.52;98024.13;10327972;28;826;-75
2023/10/30 13:15:37;;;;;;;;;;;;;;;18.63;57.62;98005.66;10328007;28;1897;-75
2023/10/30 13:20:33;;;;;;;;;;;;;;;18.65;57.73;97994.97;10326984;28;913;-75
2023/10/30 13:25:30;;;;;;;;;;;;;;;18.65;57.79;97987.88;10328132;28;918;-75
2023/10/30 13:30:27;;;;;;;;;;;;;;;18.75;57.71;97972.22;10327725;28;1158;-75
2023/10/30 13:35:23;;;;;;;;;;;;;;;18.77;57.78;97965.03;10327554;28;1913;-75
2023/10/30 13:40:19;;;;;;;;;;;;;;;18.75;57.96;97951.13;10326825;28;845;-75
2023/10/30 13:45:15;;;;;;;;;;;;;;;18.68;58.13;97942.81;10326690;28;891;-77
2023/10/30 13:50:11;;;;;;;;;;;;;;;18.66;57.99;97942.06;10327060;28;878;-75
2023/10/30 13:55:07;;;;;;;;;;;;;;;18.69;58.21;97941.00;10324819;28;1959;-74
2023/10/30 14:00:06;;;;;;;;;;;;;;;18.67;57.99;97940.28;10326019;28;811;-75
2023/10/30 14:05:03;;;;;;;;;;;;;;;18.68;58.15;97936.66;10325687;28;886;-73
2023/10/30 14:09:59;;;;;;;;;;;;;;;18.66;58.14;97925.41;10325448;28;787;-74
2023/10/30 14:14:56;;;;;;;;;;;;;;;18.64;58.36;97928.16;10325240;28;1902;-73
2023/10/30 14:19:52;;;;;;;;;;;;;;;18.65;58.34;97921.06;10326352;28;893;-73
2023/10/30 14:24:47;;;;;;;;;;;;;;;18.67;58.43;97913.88;10324476;28;842;-73
2023/10/30 14:29:43;;;;;;;;;;;;;;;18.67;58.28;97927.06;10324856;28;1140;-73
2023/10/30 14:34:39;;;;;;;;;;;;;;;18.64;58.36;97916.75;10325400;28;1971;-73
2023/10/30 14:39:35;;;;;;;;;;;;;;;18.62;58.33;97915.06;10324880;28;853;-73
2023/10/30 14:44:31;;;;;;;;;;;;;;;18.58;58.34;97900.44;10325170;28;839;-73
2023/10/30 14:49:27;;;;;;;;;;;;;;;18.55;58.48;97898.03;10324728;28;919;-73
2023/10/30 14:54:23;;;;;;;;;;;;;;;18.52;58.80;97900.91;10324676;28;1135;-73
2023/10/30 14:59:19;;;;;;;;;;;;;;;18.50;58.66;97894.91;10324589;28;1898;-73
2023/10/30 15:04:15;;;;;;;;;;;;;;;18.50;58.78;97899.34;10324479;28;855;-74
2023/10/30 15:09:12;;;;;;;;;;;;;;;18.51;58.69;97901.00;10323768;28;902;-73
2023/10/30 15:14:08;;;;;;;;;;;;;;;18.52;58.66;97881.56;10324780;28;901;-73
2023/10/30 15:19:04;;;;;;;;;;;;;;;18.55;58.59;97871.66;10324109;28;1894;-73
2023/10/30 15:24:00;;;;;;;;;;;;;;;18.57;58.75;97864.44;10325251;28;783;-70
2023/10/30 15:28:56;;;;;;;;;;;;;;;18.56;58.58;97864.56;10331420;28;1131;-69
2023/10/30 15:33:53;;;;;;;;;;;;;;;18.56;58.78;97859.28;10332051;28;988;-75
2023/10/30 15:38:49;;;;;;;;;;;;;;;18.53;58.76;97855.09;10331082;28;1983;-75
2023/10/30 15:43:45;;;;;;;;;;;;;;;18.56;58.78;97856.66;10331073;28;858;-75
2023/10/30 15:48:46;;;;;;;;;;;;;;;18.58;58.84;97845.03;10330991;28;802;-75
2023/10/30 15:53:42;;;;;;;;;;;;;;;18.59;58.56;97833.50;10331423;28;835;-75
2023/10/30 15:58:37;;;;;;;;;;;;;;;18.59;58.76;97825.59;10329937;28;1953;-75
2023/10/30 16:03:33;;;;;;;;;;;;;;;18.59;58.87;97822.94;10330915;28;795;-75
2023/10/30 16:08:29;;;;;;;;;;;;;;;18.63;58.78;97826.19;10330270;28;783;-78
2023/10/30 16:13:25;;;;;;;;;;;;;;;18.65;58.57;97808.44;10330254;28;826;-75
2023/10/30 16:18:21;;;;;;;;;;;;;;;18.67;58.72;97816.25;10329921;28;1906;-76
2023/10/30 16:23:17;;;;;;;;;;;;;;;18.65;58.63;97804.97;10330300;28;905;-75
2023/10/30 16:28:13;;;;;;;;;;;;;;;18.65;58.70;97802.31;10329973;28;894;-75
2023/10/30 16:33:09;;;;;;;;;;;;;;;18.66;58.69;97807.50;10328628;28;1262;-75
2023/10/30 16:38:04;;;;;;;;;;;;;;;18.68;58.51;97802.06;10327281;28;1918;-75
2023/10/30 16:43:00;;;;;;;;;;;;;;;18.69;58.66;97790.56;10328407;28;864;-75
2023/10/30 16:47:56;;;;;;;;;;;;;;;18.69;58.46;97793.22;10329186;28;921;-75
2023/10/30 16:52:52;;;;;;;;;;;;;;;18.61;58.47;97789.38;10329597;28;807;-75
2023/10/30 16:57:48;;;;;;;;;;;;;;;18.64;58.56;97795.38;10328577;28;1961;-71
2023/10/30 17:02:44;;;;;;;;;;;;;;;18.67;58.60;97797.78;10329021;28;846;-71
2023/10/30 17:07:40;;;;;;;;;;;;;;;18.68;58.49;97807.34;10329018;28;944;-71
2023/10/30 17:12:36;;;;;;;;;;;;;;;18.67;58.43;97826.78;10327913;28;926;-72
2023/10/30 17:17:32;;;;;;;;;;;;;;;18.66;58.35;97838.31;10328363;28;1961;-71
2023/10/30 17:22:28;;;;;;;;;;;;;;;18.65;58.28;97844.53;10327042;28;854;-72
2023/10/30 17:27:24;;;;;;;;;;;;;;;18.66;58.21;97833.88;10327448;28;902;-71
2023/10/30 17:32:20;;;;;;;;;;;;;;;18.68;58.27;97821.41;10327591;28;1264;-72
2023/10/30 17:37:15;;;;;;;;;;;;;;;18.68;58.23;97817.91;10326947;28;1985;-72
2023/10/30 17:42:11;;;;;;;;;;;;;;;18.68;58.25;97818.78;10327482;28;928;-71
2023/10/30 17:47:07;;;;;;;;;;;;;;;18.66;58.33;97814.56;10326002;28;822;-72
2023/10/30 17:52:03;;;;;;;;;;;;;;;18.66;58.29;97804.03;10326505;28;940;-72
2023/10/30 17:56:59;;;;;;;;;;;;;;;18.65;58.34;97797.03;10326753;28;1964;-74
2023/10/30 18:01:55;;;;;;;;;;;;;;;18.62;58.26;97783.13;10326878;28;988;-74
2023/10/30 18:06:51;;;;;;;;;;;;;;;18.69;58.43;97777.38;10326165;28;781;-74
2023/10/30 18:11:47;;;;;;;;;;;;;;;18.68;58.58;97775.69;10326031;28;799;-75
2023/10/30 18:16:43;;;;;;;;;;;;;;;18.69;58.80;97758.91;10326301;28;1902;-75
2023/10/30 18:21:39;;;;;;;;;;;;;;;18.72;58.82;97756.03;10325706;28;1044;-74
2023/10/30 18:26:35;;;;;;;;;;;;;;;18.76;58.72;97758.34;10325618;28;821;-74
2023/10/30 18:31:31;;;;;;;;;;;;;;;18.77;58.86;97749.44;10326011;28;1156;-74
2023/10/30 18:36:27;;;;;;;;;;;;;;;18.76;58.83;97746.94;10325302;28;1899;-73
2023/10/30 18:41:23;;;;;;;;;;;;;;;18.75;58.95;97742.63;10325085;28;893;-72
2023/10/30 18:46:19;;;;;;;;;;;;;;;18.77;58.94;97740.69;10325747;28;838;-72
2023/10/30 18:51:15;;;;;;;;;;;;;;;18.79;58.88;97739.63;10326291;28;968;-72
2023/10/30 18:56:11;;;;;;;;;;;;;;;18.78;58.98;97732.63;10325692;28;1955;-72
2023/10/30 19:01:08;;;;;;;;;;;;;;;18.78;58.91;97723.88;10331347;28;802;-73
2023/10/30 19:06:04;;;;;;;;;;;;;;;18.77;59.07;97709.03;10333570;28;806;-73
2023/10/30 19:11:00;;;;;;;;;;;;;;;18.79;58.82;97713.22;10333418;28;908;-72
2023/10/30 19:15:56;;;;;;;;;;;;;;;18.80;58.86;97708.78;10332580;28;1949;-72
2023/10/30 19:20:54;;;;;;;;;;;;;;;18.79;58.80;97700.03;10332337;28;826;-72
2023/10/30 19:25:49;;;;;;;;;;;;;;;18.81;59.02;97703.38;10332233;28;861;-72
2023/10/30 19:30:45;;;;;;;;;;;;;;;18.78;59.15;97697.50;10331804;28;1093;-73
2023/10/30 19:35:41;;;;;;;;;;;;;;;18.80;59.08;97700.84;10332463;28;1959;-72
2023/10/30 19:40:38;;;;;;;;;;;;;;;18.82;58.93;97699.78;10331604;28;942;-73
2023/10/30 19:45:34;;;;;;;;;;;;;;;18.82;58.92;97696.31;10331343;28;869;-74
2023/10/30 19:50:30;;;;;;;;;;;;;;;18.81;58.77;97700.75;10331948;28;795;-74
2023/10/30 19:55:26;;;;;;;;;;;;;;;18.81;58.96;97699.88;10330923;28;1886;-74
2023/10/30 20:00:22;;;;;;;;;;;;;;;18.79;58.86;97699.19;10330890;28;814;-73
2023/10/30 20:05:18;;;;;;;;;;;;;;;18.81;59.12;97702.53;10328623;28;1100;-74
2023/10/30 20:10:14;;;;;;;;;;;;;;;18.83;58.94;97706.72;10328947;28;865;-75
2023/10/30 20:15:10;;;;;;;;;;;;;;;18.84;58.91;97707.59;10329673;28;1936;-75
2023/10/30 20:20:05;;;;;;;;;;;;;;;18.83;58.84;97701.44;10330846;28;789;-74
2023/10/30 20:25:01;;;;;;;;;;;;;;;18.83;58.73;97703.25;10328592;28;1208;-75
2023/10/30 20:29:57;;;;;;;;;;;;;;;18.81;58.78;97698.09;10330030;28;1252;-74
2023/10/30 20:34:53;;;;;;;;;;;;;;;18.85;58.55;97698.69;10329136;28;1906;-75
2023/10/30 20:39:50;;;;;;;;;;;;;;;18.84;58.78;97691.75;10328815;28;799;-74
2023/10/30 20:44:46;;;;;;;;;;;;;;;18.83;58.75;97684.78;10329717;28;834;-75
2023/10/30 20:49:42;;;;;;;;;;;;;;;18.82;58.86;97675.19;10327217;28;877;-75
2023/10/30 20:54:38;;;;;;;;;;;;;;;18.80;58.84;97670.03;10328431;28;865;-75
2023/10/30 20:59:34;;;;;;;;;;;;;;;18.77;59.03;97661.53;10327941;28;1965;-75
2023/10/30 21:04:30;;;;;;;;;;;;;;;18.76;58.95;97657.22;10328365;28;822;-74
2023/10/30 21:09:26;;;;;;;;;;;;;;;18.74;59.01;97653.81;10328435;28;877;-76
2023/10/30 21:14:22;;;;;;;;;;;;;;;18.72;58.98;97647.81;10328594;28;1048;-72
2023/10/30 21:19:18;;;;;;;;;;;;;;;18.71;59.15;97643.53;10328309;28;1957;-72
2023/10/30 21:24:13;;;;;;;;;;;;;;;18.70;58.94;97642.66;10326023;28;913;-71
2023/10/30 21:29:09;;;;;;;;;;;;;;;18.68;59.03;97633.19;10327093;28;1435;-71
2023/10/30 21:34:06;;;;;;;;;;;;;;;18.66;59.16;97633.34;10327496;28;917;-71
2023/10/30 21:39:02;;;;;;;;;;;;;;;18.68;59.20;97630.56;10326726;28;1967;-71
2023/10/30 21:44:00;;;;;;;;;;;;;;;18.68;59.03;97620.84;10326685;28;885;-72
2023/10/30 21:48:56;;;;;;;;;;;;;;;18.68;58.96;97615.56;10326486;28;898;-72
2023/10/30 21:53:53;;;;;;;;;;;;;;;18.68;58.91;97606.78;10326420;28;965;-72
2023/10/30 21:58:49;;;;;;;;;;;;;;;18.66;58.82;97600.84;10326088;28;1898;-72
2023/10/30 22:03:45;;;;;;;;;;;;;;;18.65;58.85;97593.84;10326191;28;838;-71
2023/10/30 22:08:40;;;;;;;;;;;;;;;18.63;58.94;97596.63;10325365;28;810;-72
2023/10/30 22:13:36;;;;;;;;;;;;;;;18.61;58.99;97599.38;10325891;28;893;-72
2023/10/30 22:18:32;;;;;;;;;;;;;;;18.57;58.96;97590.03;10326187;28;1901;-71
2023/10/30 22:23:28;;;;;;;;;;;;;;;18.56;58.91;97590.19;10325693;28;925;-71
2023/10/30 22:28:24;;;;;;;;;;;;;;;18.54;59.06;97589.44;10325582;28;805;-71
2023/10/30 22:33:20;;;;;;;;;;;;;;;18.51;59.11;97592.34;10325575;28;1178;-71
2023/10/30 22:38:16;;;;;;;;;;;;;;;18.48;58.89;97588.16;10325920;28;1910;-71
2023/10/30 22:43:11;;;;;;;;;;;;;;;18.45;59.01;97585.75;10325818;28;924;-71
2023/10/30 22:48:07;;;;;;;;;;;;;;;18.45;59.12;97574.38;10325207;28;757;-71
2023/10/30 22:53:03;;;;;;;;;;;;;;;18.43;59.00;97578.94;10324517;28;905;-71
2023/10/30 22:57:59;;;;;;;;;;;;;;;18.40;59.03;97569.47;10325560;28;1897;-71
2023/10/30 23:02:55;;;;;;;;;;;;;;;18.39;59.11;97565.13;10325640;28;818;-71
2023/10/30 23:07:51;;;;;;;;;;;;;;;18.36;59.13;97563.59;10324807;28;860;-71
2023/10/30 23:12:47;;;;;;;;;;;;;;;18.35;59.08;97558.44;10324586;28;994;-71
2023/10/30 23:17:43;;;;;;;;;;;;;;;18.33;59.16;97558.56;10325704;28;1897;-71
2023/10/30 23:22:39;;;;;;;;;;;;;;;18.33;59.23;97566.47;10325124;28;857;-71
2023/10/30 23:27:35;;;;;;;;;;;;;;;18.31;58.98;97573.69;10324462;28;944;-71
2023/10/30 23:32:31;;;;;;;;;;;;;;;18.28;59.19;97573.06;10325191;28;1259;-71
2023/10/30 23:37:27;;;;;;;;;;;;;;;18.26;59.01;97580.25;10324860;28;1995;-71
2023/10/30 23:42:23;;;;;;;;;;;;;;;18.24;59.11;97582.22;10323701;28;1201;-71
2023/10/30 23:47:18;;;;;;;;;;;;;;;18.24;59.13;97582.22;10328093;28;939;-71
2023/10/30 23:52:14;;;;;;;;;;;;;;;18.20;59.34;97581.59;10331354;28;936;-71
2023/10/30 23:57:10;;;;;;;;;;;;;;;18.17;59.30;97593.22;10331030;28;1960;-71
